sensor_id;sensor_type;location;lat;lon;timestamp;temperature;humidity
21759;DHT22;11041;50.854;20.580;2024-03-02T00:00:38;7.70;99.90
21759;DHT22;11041;50.854;20.580;2024-03-02T00:03:27;7.70;99.90
21759;DHT22;11041;50.854;20.580;2024-03-02T00:05:58;7.80;99.90
21759;DHT22;11041;50.854;20.580;2024-03-02T00:08:25;7.80;99.90
21759;DHT22;11041;50.854;20.580;2024-03-02T00:11:01;7.70;99.90
21759;DHT22;11041;50.854;20.580;2024-03-02T00:13:34;7.70;99.90
21759;DHT22;11041;50.854;20.580;2024-03-02T00:16:02;7.70;99.90
21759;DHT22;11041;50.854;20.580;2024-03-02T00:18:32;7.70;99.90
21759;DHT22;11041;50.854;20.580;2024-03-02T00:21:02;7.80;99.90
21759;DHT22;11041;50.854;20.580;2024-03-02T00:23:33;7.80;99.90
21759;DHT22;11041;50.854;20.580;2024-03-02T00:26:03;7.80;99.90
21759;DHT22;11041;50.854;20.580;2024-03-02T00:28:35;7.80;99.90
21759;DHT22;11041;50.854;20.580;2024-03-02T00:31:08;7.80;99.90
21759;DHT22;11041;50.854;20.580;2024-03-02T00:33:48;7.80;99.90
21759;DHT22;11041;50.854;20.580;2024-03-02T00:36:16;7.70;99.90
21759;DHT22;11041;50.854;20.580;2024-03-02T00:38:52;7.80;99.90
21759;DHT22;11041;50.854;20.580;2024-03-02T00:41:30;7.80;99.90
21759;DHT22;11041;50.854;20.580;2024-03-02T00:44:04;7.80;99.90
21759;DHT22;11041;50.854;20.580;2024-03-02T00:46:38;7.80;99.90
21759;DHT22;11041;50.854;20.580;2024-03-02T00:49:21;7.80;99.90
21759;DHT22;11041;50.854;20.580;2024-03-02T00:51:50;7.80;99.90
21759;DHT22;11041;50.854;20.580;2024-03-02T00:54:22;7.80;99.90
21759;DHT22;11041;50.854;20.580;2024-03-02T00:56:55;7.70;99.90
21759;DHT22;11041;50.854;20.580;2024-03-02T00:59:22;7.70;99.90
21759;DHT22;11041;50.854;20.580;2024-03-02T01:01:49;7.70;99.90
21759;DHT22;11041;50.854;20.580;2024-03-02T01:04:16;7.70;99.90
21759;DHT22;11041;50.854;20.580;2024-03-02T01:06:43;7.70;99.90
21759;DHT22;11041;50.854;20.580;2024-03-02T01:09:10;7.70;99.90
21759;DHT22;11041;50.854;20.580;2024-03-02T01:11:40;7.60;99.90
21759;DHT22;11041;50.854;20.580;2024-03-02T01:14:07;7.60;99.90
21759;DHT22;11041;50.854;20.580;2024-03-02T01:16:33;7.70;99.90
21759;DHT22;11041;50.854;20.580;2024-03-02T01:19:00;7.60;99.90
21759;DHT22;11041;50.854;20.580;2024-03-02T01:21:30;7.60;99.90
21759;DHT22;11041;50.854;20.580;2024-03-02T01:23:58;7.50;99.90
21759;DHT22;11041;50.854;20.580;2024-03-02T01:26:27;7.50;99.90
21759;DHT22;11041;50.854;20.580;2024-03-02T01:28:54;7.40;99.90
21759;DHT22;11041;50.854;20.580;2024-03-02T01:31:23;7.40;99.90
21759;DHT22;11041;50.854;20.580;2024-03-02T01:33:50;7.40;99.90
21759;DHT22;11041;50.854;20.580;2024-03-02T01:36:17;7.30;99.90
21759;DHT22;11041;50.854;20.580;2024-03-02T01:38:45;7.30;99.90
21759;DHT22;11041;50.854;20.580;2024-03-02T01:41:12;7.30;99.90
21759;DHT22;11041;50.854;20.580;2024-03-02T01:43:39;7.20;99.90
21759;DHT22;11041;50.854;20.580;2024-03-02T01:46:06;7.20;99.90
21759;DHT22;11041;50.854;20.580;2024-03-02T01:48:32;7.20;99.90
21759;DHT22;11041;50.854;20.580;2024-03-02T01:51:00;7.10;99.90
21759;DHT22;11041;50.854;20.580;2024-03-02T01:53:27;7.00;99.90
21759;DHT22;11041;50.854;20.580;2024-03-02T01:55:54;7.10;99.90
21759;DHT22;11041;50.854;20.580;2024-03-02T01:58:22;7.10;99.90
21759;DHT22;11041;50.854;20.580;2024-03-02T02:00:50;7.00;99.90
21759;DHT22;11041;50.854;20.580;2024-03-02T02:03:17;7.00;99.90
21759;DHT22;11041;50.854;20.580;2024-03-02T02:05:45;7.00;99.90
21759;DHT22;11041;50.854;20.580;2024-03-02T02:08:14;6.90;99.90
21759;DHT22;11041;50.854;20.580;2024-03-02T02:10:42;6.90;99.90
21759;DHT22;11041;50.854;20.580;2024-03-02T02:13:10;6.90;99.90
21759;DHT22;11041;50.854;20.580;2024-03-02T02:15:37;6.90;99.90
21759;DHT22;11041;50.854;20.580;2024-03-02T02:18:03;6.80;99.90
21759;DHT22;11041;50.854;20.580;2024-03-02T02:20:32;6.80;99.90
21759;DHT22;11041;50.854;20.580;2024-03-02T02:23:03;6.80;99.90
21759;DHT22;11041;50.854;20.580;2024-03-02T02:25:36;6.80;99.90
21759;DHT22;11041;50.854;20.580;2024-03-02T02:28:02;6.70;99.90
21759;DHT22;11041;50.854;20.580;2024-03-02T02:30:30;6.70;99.90
21759;DHT22;11041;50.854;20.580;2024-03-02T02:32:58;6.80;99.90
21759;DHT22;11041;50.854;20.580;2024-03-02T02:35:24;6.80;99.90
21759;DHT22;11041;50.854;20.580;2024-03-02T02:37:52;6.80;99.90
21759;DHT22;11041;50.854;20.580;2024-03-02T02:40:24;6.80;99.90
21759;DHT22;11041;50.854;20.580;2024-03-02T02:42:50;6.80;99.90
21759;DHT22;11041;50.854;20.580;2024-03-02T02:45:21;6.80;99.90
21759;DHT22;11041;50.854;20.580;2024-03-02T02:47:50;6.90;99.90
21759;DHT22;11041;50.854;20.580;2024-03-02T02:50:17;6.90;99.90
21759;DHT22;11041;50.854;20.580;2024-03-02T02:52:44;7.00;99.90
21759;DHT22;11041;50.854;20.580;2024-03-02T02:55:13;7.00;99.90
21759;DHT22;11041;50.854;20.580;2024-03-02T02:57:43;7.00;99.90
21759;DHT22;11041;50.854;20.580;2024-03-02T03:00:11;7.00;99.90
21759;DHT22;11041;50.854;20.580;2024-03-02T03:02:48;7.00;99.90
21759;DHT22;11041;50.854;20.580;2024-03-02T03:05:15;7.10;99.90
21759;DHT22;11041;50.854;20.580;2024-03-02T03:07:42;7.20;99.90
21759;DHT22;11041;50.854;20.580;2024-03-02T03:10:12;7.20;99.90
21759;DHT22;11041;50.854;20.580;2024-03-02T03:12:39;7.20;99.90
21759;DHT22;11041;50.854;20.580;2024-03-02T03:15:08;7.30;99.90
21759;DHT22;11041;50.854;20.580;2024-03-02T03:17:37;7.30;99.90
21759;DHT22;11041;50.854;20.580;2024-03-02T03:20:04;7.20;99.90
21759;DHT22;11041;50.854;20.580;2024-03-02T03:22:32;7.30;99.90
21759;DHT22;11041;50.854;20.580;2024-03-02T03:24:59;7.30;99.90
21759;DHT22;11041;50.854;20.580;2024-03-02T03:27:27;7.30;99.90
21759;DHT22;11041;50.854;20.580;2024-03-02T03:29:54;7.30;99.90
21759;DHT22;11041;50.854;20.580;2024-03-02T03:32:20;7.40;99.90
21759;DHT22;11041;50.854;20.580;2024-03-02T03:34:48;7.40;99.90
21759;DHT22;11041;50.854;20.580;2024-03-02T03:37:19;7.40;99.90
21759;DHT22;11041;50.854;20.580;2024-03-02T03:39:46;7.40;99.90
21759;DHT22;11041;50.854;20.580;2024-03-02T03:42:12;7.50;99.90
21759;DHT22;11041;50.854;20.580;2024-03-02T03:44:39;7.40;99.90
21759;DHT22;11041;50.854;20.580;2024-03-02T03:47:07;7.40;99.90
21759;DHT22;11041;50.854;20.580;2024-03-02T03:49:34;7.40;99.90
21759;DHT22;11041;50.854;20.580;2024-03-02T03:52:00;7.30;99.90
21759;DHT22;11041;50.854;20.580;2024-03-02T03:54:27;7.40;99.90
21759;DHT22;11041;50.854;20.580;2024-03-02T03:56:53;7.40;99.90
21759;DHT22;11041;50.854;20.580;2024-03-02T03:59:19;7.40;99.90
21759;DHT22;11041;50.854;20.580;2024-03-02T04:01:46;7.40;99.90
21759;DHT22;11041;50.854;20.580;2024-03-02T04:04:12;7.40;99.90
21759;DHT22;11041;50.854;20.580;2024-03-02T04:06:39;7.40;99.90
21759;DHT22;11041;50.854;20.580;2024-03-02T04:09:05;7.40;99.90
21759;DHT22;11041;50.854;20.580;2024-03-02T04:11:32;7.40;99.90
21759;DHT22;11041;50.854;20.580;2024-03-02T04:13:58;7.40;99.90
21759;DHT22;11041;50.854;20.580;2024-03-02T04:16:25;7.40;99.90
21759;DHT22;11041;50.854;20.580;2024-03-02T04:18:51;7.40;99.90
21759;DHT22;11041;50.854;20.580;2024-03-02T04:21:17;7.40;99.90
21759;DHT22;11041;50.854;20.580;2024-03-02T04:23:44;7.40;99.90
21759;DHT22;11041;50.854;20.580;2024-03-02T04:26:10;7.50;99.90
21759;DHT22;11041;50.854;20.580;2024-03-02T04:28:39;7.50;99.90
21759;DHT22;11041;50.854;20.580;2024-03-02T04:31:06;7.40;99.90
21759;DHT22;11041;50.854;20.580;2024-03-02T04:33:33;7.50;99.90
21759;DHT22;11041;50.854;20.580;2024-03-02T04:36:00;7.50;99.90
21759;DHT22;11041;50.854;20.580;2024-03-02T04:38:28;7.50;99.90
21759;DHT22;11041;50.854;20.580;2024-03-02T04:40:55;7.40;99.90
21759;DHT22;11041;50.854;20.580;2024-03-02T04:43:21;7.40;99.90
21759;DHT22;11041;50.854;20.580;2024-03-02T04:45:52;7.30;99.90
21759;DHT22;11041;50.854;20.580;2024-03-02T04:48:18;7.20;99.90
21759;DHT22;11041;50.854;20.580;2024-03-02T04:50:46;7.20;99.90
21759;DHT22;11041;50.854;20.580;2024-03-02T04:53:13;7.10;99.90
21759;DHT22;11041;50.854;20.580;2024-03-02T04:55:39;7.10;99.90
21759;DHT22;11041;50.854;20.580;2024-03-02T04:58:06;7.10;99.90
21759;DHT22;11041;50.854;20.580;2024-03-02T05:00:34;7.10;99.90
21759;DHT22;11041;50.854;20.580;2024-03-02T05:03:02;7.10;99.90
21759;DHT22;11041;50.854;20.580;2024-03-02T05:05:29;7.10;99.90
21759;DHT22;11041;50.854;20.580;2024-03-02T05:07:55;7.10;99.90
21759;DHT22;11041;50.854;20.580;2024-03-02T05:10:21;7.00;99.90
21759;DHT22;11041;50.854;20.580;2024-03-02T05:12:50;7.00;99.90
21759;DHT22;11041;50.854;20.580;2024-03-02T05:15:26;7.00;99.90
21759;DHT22;11041;50.854;20.580;2024-03-02T05:17:52;6.90;99.90
21759;DHT22;11041;50.854;20.580;2024-03-02T05:20:19;7.00;99.90
21759;DHT22;11041;50.854;20.580;2024-03-02T05:22:47;7.00;99.90
21759;DHT22;11041;50.854;20.580;2024-03-02T05:25:15;7.00;99.90
21759;DHT22;11041;50.854;20.580;2024-03-02T05:27:44;7.00;99.90
21759;DHT22;11041;50.854;20.580;2024-03-02T05:30:11;7.00;99.90
21759;DHT22;11041;50.854;20.580;2024-03-02T05:32:41;7.10;99.90
21759;DHT22;11041;50.854;20.580;2024-03-02T05:35:08;7.10;99.90
21759;DHT22;11041;50.854;20.580;2024-03-02T05:37:37;7.20;99.90
21759;DHT22;11041;50.854;20.580;2024-03-02T05:40:11;7.10;99.90
21759;DHT22;11041;50.854;20.580;2024-03-02T05:42:39;7.20;99.90
21759;DHT22;11041;50.854;20.580;2024-03-02T05:45:11;7.20;99.90
21759;DHT22;11041;50.854;20.580;2024-03-02T05:47:41;7.30;99.90
21759;DHT22;11041;50.854;20.580;2024-03-02T05:50:08;7.40;99.90
21759;DHT22;11041;50.854;20.580;2024-03-02T05:52:35;7.40;99.90
21759;DHT22;11041;50.854;20.580;2024-03-02T05:55:02;7.40;99.90
21759;DHT22;11041;50.854;20.580;2024-03-02T05:57:29;7.40;99.90
21759;DHT22;11041;50.854;20.580;2024-03-02T06:00:12;7.50;99.90
21759;DHT22;11041;50.854;20.580;2024-03-02T06:02:41;7.50;99.90
21759;DHT22;11041;50.854;20.580;2024-03-02T06:05:08;7.50;99.90
21759;DHT22;11041;50.854;20.580;2024-03-02T06:07:34;7.50;99.90
21759;DHT22;11041;50.854;20.580;2024-03-02T06:10:01;7.60;99.90
21759;DHT22;11041;50.854;20.580;2024-03-02T06:12:31;7.70;99.90
21759;DHT22;11041;50.854;20.580;2024-03-02T06:14:58;7.60;99.90
21759;DHT22;11041;50.854;20.580;2024-03-02T06:17:25;7.60;99.90
21759;DHT22;11041;50.854;20.580;2024-03-02T06:19:51;7.70;99.90
21759;DHT22;11041;50.854;20.580;2024-03-02T06:22:18;7.80;99.90
21759;DHT22;11041;50.854;20.580;2024-03-02T06:24:45;7.80;99.90
21759;DHT22;11041;50.854;20.580;2024-03-02T06:27:11;7.90;99.90
21759;DHT22;11041;50.854;20.580;2024-03-02T06:29:38;7.90;99.90
21759;DHT22;11041;50.854;20.580;2024-03-02T06:32:05;8.00;99.90
21759;DHT22;11041;50.854;20.580;2024-03-02T06:34:31;8.00;99.90
21759;DHT22;11041;50.854;20.580;2024-03-02T06:36:58;7.90;99.90
21759;DHT22;11041;50.854;20.580;2024-03-02T06:39:25;8.00;99.90
21759;DHT22;11041;50.854;20.580;2024-03-02T06:41:52;8.00;99.90
21759;DHT22;11041;50.854;20.580;2024-03-02T06:44:18;8.10;99.90
21759;DHT22;11041;50.854;20.580;2024-03-02T06:46:44;8.00;99.90
21759;DHT22;11041;50.854;20.580;2024-03-02T06:49:11;8.10;99.90
21759;DHT22;11041;50.854;20.580;2024-03-02T06:51:37;8.10;99.90
21759;DHT22;11041;50.854;20.580;2024-03-02T06:54:04;8.20;99.90
21759;DHT22;11041;50.854;20.580;2024-03-02T06:56:30;8.20;99.90
21759;DHT22;11041;50.854;20.580;2024-03-02T06:58:59;8.20;99.90
21759;DHT22;11041;50.854;20.580;2024-03-02T07:01:27;8.20;99.90
21759;DHT22;11041;50.854;20.580;2024-03-02T07:03:55;8.30;99.90
21759;DHT22;11041;50.854;20.580;2024-03-02T07:06:23;8.30;99.90
21759;DHT22;11041;50.854;20.580;2024-03-02T07:08:50;8.20;99.90
21759;DHT22;11041;50.854;20.580;2024-03-02T07:11:17;8.20;99.90
21759;DHT22;11041;50.854;20.580;2024-03-02T07:13:46;8.20;99.90
21759;DHT22;11041;50.854;20.580;2024-03-02T07:16:12;8.20;99.90
21759;DHT22;11041;50.854;20.580;2024-03-02T07:18:55;8.20;99.90
21759;DHT22;11041;50.854;20.580;2024-03-02T07:21:23;8.20;99.90
21759;DHT22;11041;50.854;20.580;2024-03-02T07:23:50;8.10;99.90
21759;DHT22;11041;50.854;20.580;2024-03-02T07:26:16;8.10;99.90
21759;DHT22;11041;50.854;20.580;2024-03-02T07:28:47;8.10;99.90
21759;DHT22;11041;50.854;20.580;2024-03-02T07:31:14;8.20;99.90
21759;DHT22;11041;50.854;20.580;2024-03-02T07:33:43;8.10;99.90
21759;DHT22;11041;50.854;20.580;2024-03-02T07:36:11;8.10;99.90
21759;DHT22;11041;50.854;20.580;2024-03-02T07:38:38;8.20;99.90
21759;DHT22;11041;50.854;20.580;2024-03-02T07:41:07;8.20;99.90
21759;DHT22;11041;50.854;20.580;2024-03-02T07:43:34;8.20;99.90
21759;DHT22;11041;50.854;20.580;2024-03-02T07:46:01;8.20;99.90
21759;DHT22;11041;50.854;20.580;2024-03-02T07:48:32;8.20;99.90
21759;DHT22;11041;50.854;20.580;2024-03-02T07:50:58;8.20;99.90
21759;DHT22;11041;50.854;20.580;2024-03-02T07:53:28;8.20;99.90
21759;DHT22;11041;50.854;20.580;2024-03-02T07:55:54;8.30;99.90
21759;DHT22;11041;50.854;20.580;2024-03-02T07:58:27;8.30;99.90
21759;DHT22;11041;50.854;20.580;2024-03-02T08:00:54;8.40;99.90
21759;DHT22;11041;50.854;20.580;2024-03-02T08:03:20;8.40;99.90
21759;DHT22;11041;50.854;20.580;2024-03-02T08:05:47;8.40;99.90
21759;DHT22;11041;50.854;20.580;2024-03-02T08:08:13;8.50;99.90
21759;DHT22;11041;50.854;20.580;2024-03-02T08:10:40;8.50;99.90
21759;DHT22;11041;50.854;20.580;2024-03-02T08:13:07;8.60;99.90
21759;DHT22;11041;50.854;20.580;2024-03-02T08:15:35;8.60;99.90
21759;DHT22;11041;50.854;20.580;2024-03-02T08:18:03;8.70;99.90
21759;DHT22;11041;50.854;20.580;2024-03-02T08:20:33;8.70;99.90
21759;DHT22;11041;50.854;20.580;2024-03-02T08:23:01;8.80;99.90
21759;DHT22;11041;50.854;20.580;2024-03-02T08:25:34;8.90;99.90
21759;DHT22;11041;50.854;20.580;2024-03-02T08:28:00;8.90;99.90
21759;DHT22;11041;50.854;20.580;2024-03-02T08:30:27;8.90;99.90
21759;DHT22;11041;50.854;20.580;2024-03-02T08:32:53;8.90;99.90
21759;DHT22;11041;50.854;20.580;2024-03-02T08:35:20;8.90;99.90
21759;DHT22;11041;50.854;20.580;2024-03-02T08:37:48;8.90;99.90
21759;DHT22;11041;50.854;20.580;2024-03-02T08:40:15;8.90;99.90
21759;DHT22;11041;50.854;20.580;2024-03-02T08:42:45;9.00;99.90
21759;DHT22;11041;50.854;20.580;2024-03-02T08:45:12;9.00;99.90
21759;DHT22;11041;50.854;20.580;2024-03-02T08:47:41;9.00;99.90
21759;DHT22;11041;50.854;20.580;2024-03-02T08:50:08;9.00;99.90
21759;DHT22;11041;50.854;20.580;2024-03-02T08:52:38;9.00;99.90
21759;DHT22;11041;50.854;20.580;2024-03-02T08:55:06;9.00;99.90
21759;DHT22;11041;50.854;20.580;2024-03-02T08:57:34;9.00;99.90
21759;DHT22;11041;50.854;20.580;2024-03-02T09:00:01;9.00;99.90
21759;DHT22;11041;50.854;20.580;2024-03-02T09:02:31;8.90;99.90
21759;DHT22;11041;50.854;20.580;2024-03-02T09:04:58;8.90;99.90
21759;DHT22;11041;50.854;20.580;2024-03-02T09:07:26;8.90;99.90
21759;DHT22;11041;50.854;20.580;2024-03-02T09:09:52;8.90;99.90
21759;DHT22;11041;50.854;20.580;2024-03-02T09:12:19;8.90;99.90
21759;DHT22;11041;50.854;20.580;2024-03-02T09:14:50;8.90;99.90
21759;DHT22;11041;50.854;20.580;2024-03-02T09:17:17;8.90;99.90
21759;DHT22;11041;50.854;20.580;2024-03-02T09:19:43;9.00;99.90
21759;DHT22;11041;50.854;20.580;2024-03-02T09:22:11;9.00;99.90
21759;DHT22;11041;50.854;20.580;2024-03-02T09:24:39;9.00;99.90
21759;DHT22;11041;50.854;20.580;2024-03-02T09:27:07;9.10;99.90
21759;DHT22;11041;50.854;20.580;2024-03-02T09:29:33;9.10;99.90
21759;DHT22;11041;50.854;20.580;2024-03-02T09:31:59;9.10;99.90
21759;DHT22;11041;50.854;20.580;2024-03-02T09:34:29;9.10;99.90
21759;DHT22;11041;50.854;20.580;2024-03-02T09:36:55;9.10;99.90
21759;DHT22;11041;50.854;20.580;2024-03-02T09:39:22;9.20;99.90
21759;DHT22;11041;50.854;20.580;2024-03-02T09:41:53;9.20;99.90
21759;DHT22;11041;50.854;20.580;2024-03-02T09:44:22;9.10;99.90
21759;DHT22;11041;50.854;20.580;2024-03-02T09:46:52;9.20;99.90
21759;DHT22;11041;50.854;20.580;2024-03-02T09:49:20;9.20;99.90
21759;DHT22;11041;50.854;20.580;2024-03-02T09:51:48;9.20;99.90
21759;DHT22;11041;50.854;20.580;2024-03-02T09:54:18;9.30;99.90
21759;DHT22;11041;50.854;20.580;2024-03-02T09:56:47;9.30;99.90
21759;DHT22;11041;50.854;20.580;2024-03-02T09:59:13;9.30;99.90
21759;DHT22;11041;50.854;20.580;2024-03-02T10:02:03;9.40;99.90
21759;DHT22;11041;50.854;20.580;2024-03-02T10:04:33;9.50;99.90
21759;DHT22;11041;50.854;20.580;2024-03-02T10:07:22;9.60;99.90
21759;DHT22;11041;50.854;20.580;2024-03-02T10:09:51;9.70;99.90
21759;DHT22;11041;50.854;20.580;2024-03-02T10:12:19;9.80;99.90
21759;DHT22;11041;50.854;20.580;2024-03-02T10:14:48;9.80;99.90
21759;DHT22;11041;50.854;20.580;2024-03-02T10:17:31;10.00;99.90
21759;DHT22;11041;50.854;20.580;2024-03-02T10:19:57;10.10;99.90
21759;DHT22;11041;50.854;20.580;2024-03-02T10:22:24;10.20;99.90
21759;DHT22;11041;50.854;20.580;2024-03-02T10:24:53;10.30;99.90
21759;DHT22;11041;50.854;20.580;2024-03-02T10:27:25;10.40;99.90
21759;DHT22;11041;50.854;20.580;2024-03-02T10:29:53;10.40;99.90
21759;DHT22;11041;50.854;20.580;2024-03-02T10:32:22;10.40;99.90
21759;DHT22;11041;50.854;20.580;2024-03-02T10:34:50;10.50;99.90
21759;DHT22;11041;50.854;20.580;2024-03-02T10:37:16;10.50;99.90
21759;DHT22;11041;50.854;20.580;2024-03-02T10:39:43;10.50;99.90
21759;DHT22;11041;50.854;20.580;2024-03-02T10:42:14;10.60;99.90
21759;DHT22;11041;50.854;20.580;2024-03-02T10:44:44;10.60;99.90
21759;DHT22;11041;50.854;20.580;2024-03-02T10:47:12;10.60;99.90
21759;DHT22;11041;50.854;20.580;2024-03-02T10:49:44;10.70;99.90
21759;DHT22;11041;50.854;20.580;2024-03-02T10:52:17;10.80;99.90
21759;DHT22;11041;50.854;20.580;2024-03-02T10:54:45;10.80;99.90
21759;DHT22;11041;50.854;20.580;2024-03-02T10:57:15;10.70;99.90
21759;DHT22;11041;50.854;20.580;2024-03-02T10:59:53;10.70;99.90
21759;DHT22;11041;50.854;20.580;2024-03-02T11:02:25;10.70;99.90
21759;DHT22;11041;50.854;20.580;2024-03-02T11:04:56;10.80;99.90
21759;DHT22;11041;50.854;20.580;2024-03-02T11:07:29;10.90;99.90
21759;DHT22;11041;50.854;20.580;2024-03-02T11:10:01;11.00;99.90
21759;DHT22;11041;50.854;20.580;2024-03-02T11:12:41;11.10;99.90
21759;DHT22;11041;50.854;20.580;2024-03-02T11:15:18;11.20;99.90
21759;DHT22;11041;50.854;20.580;2024-03-02T11:17:48;11.40;99.90
21759;DHT22;11041;50.854;20.580;2024-03-02T11:20:20;11.40;99.90
21759;DHT22;11041;50.854;20.580;2024-03-02T11:22:48;11.50;99.90
21759;DHT22;11041;50.854;20.580;2024-03-02T11:25:27;11.50;99.90
21759;DHT22;11041;50.854;20.580;2024-03-02T11:33:05;11.40;99.90
21759;DHT22;11041;50.854;20.580;2024-03-02T11:35:37;11.50;99.90
21759;DHT22;11041;50.854;20.580;2024-03-02T11:38:04;11.50;99.90
21759;DHT22;11041;50.854;20.580;2024-03-02T11:40:34;11.60;99.90
21759;DHT22;11041;50.854;20.580;2024-03-02T11:43:01;11.70;99.90
21759;DHT22;11041;50.854;20.580;2024-03-02T11:45:31;11.70;99.90
21759;DHT22;11041;50.854;20.580;2024-03-02T11:48:02;11.60;99.90
21759;DHT22;11041;50.854;20.580;2024-03-02T11:53:09;11.60;99.90
21759;DHT22;11041;50.854;20.580;2024-03-02T11:55:39;11.70;99.90
21759;DHT22;11041;50.854;20.580;2024-03-02T11:58:07;11.70;99.90
21759;DHT22;11041;50.854;20.580;2024-03-02T12:00:34;11.70;99.90
21759;DHT22;11041;50.854;20.580;2024-03-02T12:03:06;11.70;99.90
21759;DHT22;11041;50.854;20.580;2024-03-02T12:05:35;11.70;99.90
21759;DHT22;11041;50.854;20.580;2024-03-02T12:08:04;11.60;99.90
21759;DHT22;11041;50.854;20.580;2024-03-02T12:10:33;11.60;99.90
21759;DHT22;11041;50.854;20.580;2024-03-02T12:13:03;11.60;99.90
21759;DHT22;11041;50.854;20.580;2024-03-02T12:15:33;11.50;99.90
21759;DHT22;11041;50.854;20.580;2024-03-02T12:18:03;11.40;99.90
21759;DHT22;11041;50.854;20.580;2024-03-02T12:20:31;11.40;99.90
21759;DHT22;11041;50.854;20.580;2024-03-02T12:23:00;11.50;99.90
21759;DHT22;11041;50.854;20.580;2024-03-02T12:25:28;11.60;99.90
21759;DHT22;11041;50.854;20.580;2024-03-02T12:27:59;11.60;99.90
21759;DHT22;11041;50.854;20.580;2024-03-02T12:30:32;11.50;99.90
21759;DHT22;11041;50.854;20.580;2024-03-02T12:33:02;11.60;99.90
21759;DHT22;11041;50.854;20.580;2024-03-02T12:35:30;11.70;99.90
21759;DHT22;11041;50.854;20.580;2024-03-02T12:37:57;11.80;99.90
21759;DHT22;11041;50.854;20.580;2024-03-02T12:40:26;11.80;99.90
21759;DHT22;11041;50.854;20.580;2024-03-02T12:42:53;12.00;99.90
21759;DHT22;11041;50.854;20.580;2024-03-02T12:45:20;12.10;99.90
21759;DHT22;11041;50.854;20.580;2024-03-02T12:47:50;12.10;99.90
21759;DHT22;11041;50.854;20.580;2024-03-02T12:50:20;12.10;99.90
21759;DHT22;11041;50.854;20.580;2024-03-02T12:52:54;12.10;99.90
21759;DHT22;11041;50.854;20.580;2024-03-02T12:55:22;11.90;99.90
21759;DHT22;11041;50.854;20.580;2024-03-02T12:57:52;11.70;99.90
21759;DHT22;11041;50.854;20.580;2024-03-02T13:00:22;11.80;99.90
21759;DHT22;11041;50.854;20.580;2024-03-02T13:02:52;11.80;99.90
21759;DHT22;11041;50.854;20.580;2024-03-02T13:05:19;11.90;99.90
21759;DHT22;11041;50.854;20.580;2024-03-02T13:07:48;11.90;99.90
21759;DHT22;11041;50.854;20.580;2024-03-02T13:10:15;11.80;99.90
21759;DHT22;11041;50.854;20.580;2024-03-02T13:12:41;11.90;99.90
21759;DHT22;11041;50.854;20.580;2024-03-02T13:15:08;11.90;99.90
21759;DHT22;11041;50.854;20.580;2024-03-02T13:17:37;12.00;99.90
21759;DHT22;11041;50.854;20.580;2024-03-02T13:20:05;12.10;99.90
21759;DHT22;11041;50.854;20.580;2024-03-02T13:22:36;12.10;99.90
21759;DHT22;11041;50.854;20.580;2024-03-02T13:25:03;12.20;99.90
21759;DHT22;11041;50.854;20.580;2024-03-02T13:27:31;12.30;99.90
21759;DHT22;11041;50.854;20.580;2024-03-02T13:29:58;12.40;99.90
21759;DHT22;11041;50.854;20.580;2024-03-02T13:32:25;12.40;99.90
21759;DHT22;11041;50.854;20.580;2024-03-02T13:34:51;12.30;99.90
21759;DHT22;11041;50.854;20.580;2024-03-02T13:37:19;12.30;99.90
21759;DHT22;11041;50.854;20.580;2024-03-02T13:39:46;12.30;99.90
21759;DHT22;11041;50.854;20.580;2024-03-02T13:42:13;12.20;99.90
21759;DHT22;11041;50.854;20.580;2024-03-02T13:44:44;12.40;99.90
21759;DHT22;11041;50.854;20.580;2024-03-02T13:47:15;12.40;99.90
21759;DHT22;11041;50.854;20.580;2024-03-02T13:49:42;12.30;99.90
21759;DHT22;11041;50.854;20.580;2024-03-02T13:52:15;12.30;99.90
21759;DHT22;11041;50.854;20.580;2024-03-02T13:54:44;12.30;99.90
21759;DHT22;11041;50.854;20.580;2024-03-02T13:57:12;12.40;99.90
21759;DHT22;11041;50.854;20.580;2024-03-02T13:59:39;12.20;99.90
21759;DHT22;11041;50.854;20.580;2024-03-02T14:02:07;12.20;99.90
21759;DHT22;11041;50.854;20.580;2024-03-02T14:04:35;12.10;99.90
21759;DHT22;11041;50.854;20.580;2024-03-02T14:07:02;12.00;99.90
21759;DHT22;11041;50.854;20.580;2024-03-02T14:09:29;12.00;99.90
21759;DHT22;11041;50.854;20.580;2024-03-02T14:11:56;12.10;99.90
21759;DHT22;11041;50.854;20.580;2024-03-02T14:14:22;12.10;99.90
21759;DHT22;11041;50.854;20.580;2024-03-02T14:16:49;12.10;99.90
21759;DHT22;11041;50.854;20.580;2024-03-02T14:19:16;12.20;99.90
21759;DHT22;11041;50.854;20.580;2024-03-02T14:21:42;12.30;99.90
21759;DHT22;11041;50.854;20.580;2024-03-02T14:24:09;12.30;99.90
21759;DHT22;11041;50.854;20.580;2024-03-02T14:26:36;12.30;99.90
21759;DHT22;11041;50.854;20.580;2024-03-02T14:29:03;12.30;99.90
21759;DHT22;11041;50.854;20.580;2024-03-02T14:31:30;12.20;99.90
21759;DHT22;11041;50.854;20.580;2024-03-02T14:34:00;12.20;99.90
21759;DHT22;11041;50.854;20.580;2024-03-02T14:36:31;12.20;99.90
21759;DHT22;11041;50.854;20.580;2024-03-02T14:38:58;12.20;99.90
21759;DHT22;11041;50.854;20.580;2024-03-02T14:41:24;12.20;99.90
21759;DHT22;11041;50.854;20.580;2024-03-02T14:43:52;12.20;99.90
21759;DHT22;11041;50.854;20.580;2024-03-02T14:46:19;12.10;99.90
21759;DHT22;11041;50.854;20.580;2024-03-02T14:48:46;12.10;99.90
21759;DHT22;11041;50.854;20.580;2024-03-02T14:51:13;12.00;99.90
21759;DHT22;11041;50.854;20.580;2024-03-02T14:53:40;12.00;99.90
21759;DHT22;11041;50.854;20.580;2024-03-02T14:56:07;12.00;99.90
21759;DHT22;11041;50.854;20.580;2024-03-02T14:58:34;12.00;99.90
21759;DHT22;11041;50.854;20.580;2024-03-02T15:01:03;11.90;99.90
21759;DHT22;11041;50.854;20.580;2024-03-02T15:03:31;11.90;99.90
21759;DHT22;11041;50.854;20.580;2024-03-02T15:05:58;11.80;99.90
21759;DHT22;11041;50.854;20.580;2024-03-02T15:08:26;11.80;99.90
21759;DHT22;11041;50.854;20.580;2024-03-02T15:10:52;11.80;99.90
21759;DHT22;11041;50.854;20.580;2024-03-02T15:13:22;11.70;99.90
21759;DHT22;11041;50.854;20.580;2024-03-02T15:15:49;11.60;99.90
21759;DHT22;11041;50.854;20.580;2024-03-02T15:18:17;11.50;99.90
21759;DHT22;11041;50.854;20.580;2024-03-02T15:20:44;11.40;99.90
21759;DHT22;11041;50.854;20.580;2024-03-02T15:23:11;11.30;99.90
21759;DHT22;11041;50.854;20.580;2024-03-02T15:25:37;11.20;99.90
21759;DHT22;11041;50.854;20.580;2024-03-02T15:28:04;11.10;99.90
21759;DHT22;11041;50.854;20.580;2024-03-02T15:30:30;11.10;99.90
21759;DHT22;11041;50.854;20.580;2024-03-02T15:32:57;11.00;99.90
21759;DHT22;11041;50.854;20.580;2024-03-02T15:35:25;10.90;99.90
21759;DHT22;11041;50.854;20.580;2024-03-02T15:37:52;10.90;99.90
21759;DHT22;11041;50.854;20.580;2024-03-02T15:40:18;10.80;99.90